sensor_id;sensor_type;location;lat;lon;timestamp;P1;durP1;ratioP1;P2;durP2;ratioP2
76123;SDS011;65173;48.066;20.976;2023-05-28T00:02:57;3.70;;;1.20;;
76123;SDS011;65173;48.066;20.976;2023-05-28T00:06:02;2.88;;;1.10;;
76123;SDS011;65173;48.066;20.976;2023-05-28T00:09:05;5.70;;;1.40;;
76123;SDS011;65173;48.066;20.976;2023-05-28T00:12:09;2.58;;;0.77;;
76123;SDS011;65173;48.066;20.976;2023-05-28T00:15:12;2.53;;;1.20;;
76123;SDS011;65173;48.066;20.976;2023-05-28T00:18:15;2.57;;;1.20;;
76123;SDS011;65173;48.066;20.976;2023-05-28T00:21:18;5.00;;;1.70;;
76123;SDS011;65173;48.066;20.976;2023-05-28T00:24:21;4.72;;;1.73;;
76123;SDS011;65173;48.066;20.976;2023-05-28T00:27:24;4.43;;;1.70;;
76123;SDS011;65173;48.066;20.976;2023-05-28T00:30:26;1.48;;;0.93;;
76123;SDS011;65173;48.066;20.976;2023-05-28T00:33:30;2.08;;;1.23;;
76123;SDS011;65173;48.066;20.976;2023-05-28T00:36:32;1.85;;;1.05;;
76123;SDS011;65173;48.066;20.976;2023-05-28T00:39:35;4.83;;;1.30;;
76123;SDS011;65173;48.066;20.976;2023-05-28T00:42:38;2.83;;;1.23;;
76123;SDS011;65173;48.066;20.976;2023-05-28T00:45:42;5.00;;;1.33;;
76123;SDS011;65173;48.066;20.976;2023-05-28T00:48:45;9.10;;;1.60;;
76123;SDS011;65173;48.066;20.976;2023-05-28T00:51:48;5.72;;;1.00;;
76123;SDS011;65173;48.066;20.976;2023-05-28T00:54:51;3.00;;;1.20;;
76123;SDS011;65173;48.066;20.976;2023-05-28T00:57:57;3.50;;;1.08;;
76123;SDS011;65173;48.066;20.976;2023-05-28T01:01:08;4.20;;;1.30;;
76123;SDS011;65173;48.066;20.976;2023-05-28T01:04:12;3.35;;;1.17;;
76123;SDS011;65173;48.066;20.976;2023-05-28T01:07:15;3.20;;;1.38;;
76123;SDS011;65173;48.066;20.976;2023-05-28T01:10:18;4.60;;;1.03;;
76123;SDS011;65173;48.066;20.976;2023-05-28T01:13:23;3.08;;;1.20;;
76123;SDS011;65173;48.066;20.976;2023-05-28T01:16:26;4.28;;;1.33;;
76123;SDS011;65173;48.066;20.976;2023-05-28T01:19:32;2.70;;;1.20;;
76123;SDS011;65173;48.066;20.976;2023-05-28T01:22:39;2.58;;;0.75;;
76123;SDS011;65173;48.066;20.976;2023-05-28T01:25:51;6.70;;;1.83;;
76123;SDS011;65173;48.066;20.976;2023-05-28T01:28:54;2.10;;;1.13;;
76123;SDS011;65173;48.066;20.976;2023-05-28T01:31:58;2.47;;;1.08;;
76123;SDS011;65173;48.066;20.976;2023-05-28T01:35:03;6.13;;;1.40;;
76123;SDS011;65173;48.066;20.976;2023-05-28T01:38:11;4.72;;;0.98;;
76123;SDS011;65173;48.066;20.976;2023-05-28T01:41:17;2.13;;;1.20;;
76123;SDS011;65173;48.066;20.976;2023-05-28T01:44:20;6.30;;;1.60;;
76123;SDS011;65173;48.066;20.976;2023-05-28T01:47:25;2.13;;;1.00;;
76123;SDS011;65173;48.066;20.976;2023-05-28T01:50:28;3.57;;;1.23;;
76123;SDS011;65173;48.066;20.976;2023-05-28T01:53:33;2.75;;;0.98;;
76123;SDS011;65173;48.066;20.976;2023-05-28T01:56:36;2.83;;;0.90;;
76123;SDS011;65173;48.066;20.976;2023-05-28T01:59:38;3.35;;;1.45;;
76123;SDS011;65173;48.066;20.976;2023-05-28T02:02:42;5.07;;;1.60;;
76123;SDS011;65173;48.066;20.976;2023-05-28T02:05:48;3.03;;;1.30;;
76123;SDS011;65173;48.066;20.976;2023-05-28T02:08:51;4.13;;;1.55;;
76123;SDS011;65173;48.066;20.976;2023-05-28T02:11:54;5.10;;;1.40;;
76123;SDS011;65173;48.066;20.976;2023-05-28T02:14:58;4.70;;;1.63;;
76123;SDS011;65173;48.066;20.976;2023-05-28T02:18:00;3.45;;;1.30;;
76123;SDS011;65173;48.066;20.976;2023-05-28T02:21:04;4.83;;;1.50;;
76123;SDS011;65173;48.066;20.976;2023-05-28T02:24:06;2.97;;;1.40;;
76123;SDS011;65173;48.066;20.976;2023-05-28T02:27:09;2.90;;;1.10;;
76123;SDS011;65173;48.066;20.976;2023-05-28T02:30:12;4.20;;;1.58;;
76123;SDS011;65173;48.066;20.976;2023-05-28T02:33:16;3.10;;;1.30;;
76123;SDS011;65173;48.066;20.976;2023-05-28T02:36:20;3.67;;;1.30;;
76123;SDS011;65173;48.066;20.976;2023-05-28T02:39:23;2.72;;;1.17;;
76123;SDS011;65173;48.066;20.976;2023-05-28T02:42:26;2.47;;;1.10;;
76123;SDS011;65173;48.066;20.976;2023-05-28T02:45:29;3.08;;;0.93;;
76123;SDS011;65173;48.066;20.976;2023-05-28T02:48:32;4.20;;;1.25;;
76123;SDS011;65173;48.066;20.976;2023-05-28T02:51:35;4.87;;;1.83;;
76123;SDS011;65173;48.066;20.976;2023-05-28T02:54:50;3.20;;;1.67;;
76123;SDS011;65173;48.066;20.976;2023-05-28T02:57:53;2.53;;;1.30;;
76123;SDS011;65173;48.066;20.976;2023-05-28T03:00:56;2.33;;;1.58;;
76123;SDS011;65173;48.066;20.976;2023-05-28T03:04:00;1.88;;;1.20;;
76123;SDS011;65173;48.066;20.976;2023-05-28T03:07:04;3.90;;;1.88;;
76123;SDS011;65173;48.066;20.976;2023-05-28T03:10:09;1.08;;;0.90;;
76123;SDS011;65173;48.066;20.976;2023-05-28T03:13:12;2.23;;;0.87;;
76123;SDS011;65173;48.066;20.976;2023-05-28T03:16:15;2.22;;;1.38;;
76123;SDS011;65173;48.066;20.976;2023-05-28T03:19:19;2.03;;;0.82;;
76123;SDS011;65173;48.066;20.976;2023-05-28T03:22:22;4.63;;;1.47;;
76123;SDS011;65173;48.066;20.976;2023-05-28T03:25:25;3.13;;;1.17;;
76123;SDS011;65173;48.066;20.976;2023-05-28T03:28:29;1.75;;;0.85;;
76123;SDS011;65173;48.066;20.976;2023-05-28T03:31:52;3.25;;;1.27;;
76123;SDS011;65173;48.066;20.976;2023-05-28T03:34:56;2.03;;;1.25;;
76123;SDS011;65173;48.066;20.976;2023-05-28T03:38:04;2.78;;;0.90;;
76123;SDS011;65173;48.066;20.976;2023-05-28T03:41:06;3.55;;;1.40;;
76123;SDS011;65173;48.066;20.976;2023-05-28T03:44:10;5.07;;;1.47;;
76123;SDS011;65173;48.066;20.976;2023-05-28T03:47:13;4.50;;;1.50;;
76123;SDS011;65173;48.066;20.976;2023-05-28T03:50:16;1.50;;;0.80;;
76123;SDS011;65173;48.066;20.976;2023-05-28T03:53:19;2.30;;;0.93;;
76123;SDS011;65173;48.066;20.976;2023-05-28T03:56:22;2.20;;;0.70;;
76123;SDS011;65173;48.066;20.976;2023-05-28T03:59:26;2.58;;;0.85;;
76123;SDS011;65173;48.066;20.976;2023-05-28T04:02:29;4.90;;;1.48;;
76123;SDS011;65173;48.066;20.976;2023-05-28T04:05:32;2.20;;;1.23;;
76123;SDS011;65173;48.066;20.976;2023-05-28T04:08:35;5.78;;;0.90;;
76123;SDS011;65173;48.066;20.976;2023-05-28T04:11:38;2.15;;;0.73;;
76123;SDS011;65173;48.066;20.976;2023-05-28T04:14:46;2.07;;;0.70;;
76123;SDS011;65173;48.066;20.976;2023-05-28T04:17:51;1.40;;;0.60;;
76123;SDS011;65173;48.066;20.976;2023-05-28T04:20:53;2.40;;;0.50;;
76123;SDS011;65173;48.066;20.976;2023-05-28T04:23:56;1.67;;;0.90;;
76123;SDS011;65173;48.066;20.976;2023-05-28T04:26:59;2.20;;;0.93;;
76123;SDS011;65173;48.066;20.976;2023-05-28T04:30:02;1.38;;;0.80;;
76123;SDS011;65173;48.066;20.976;2023-05-28T04:33:05;3.15;;;0.77;;
76123;SDS011;65173;48.066;20.976;2023-05-28T04:36:09;2.47;;;1.10;;
76123;SDS011;65173;48.066;20.976;2023-05-28T04:39:15;1.52;;;0.77;;
76123;SDS011;65173;48.066;20.976;2023-05-28T04:42:19;2.03;;;1.10;;
76123;SDS011;65173;48.066;20.976;2023-05-28T04:45:22;2.80;;;0.87;;
76123;SDS011;65173;48.066;20.976;2023-05-28T04:48:25;5.20;;;1.35;;
76123;SDS011;65173;48.066;20.976;2023-05-28T04:51:28;1.30;;;0.70;;
76123;SDS011;65173;48.066;20.976;2023-05-28T04:54:33;1.57;;;0.70;;
76123;SDS011;65173;48.066;20.976;2023-05-28T04:57:36;1.77;;;0.75;;
76123;SDS011;65173;48.066;20.976;2023-05-28T05:00:39;1.98;;;0.88;;
76123;SDS011;65173;48.066;20.976;2023-05-28T05:03:43;3.08;;;1.08;;
76123;SDS011;65173;48.066;20.976;2023-05-28T05:06:45;1.27;;;0.90;;
76123;SDS011;65173;48.066;20.976;2023-05-28T05:09:48;4.45;;;1.00;;
76123;SDS011;65173;48.066;20.976;2023-05-28T05:12:51;3.78;;;1.48;;
76123;SDS011;65173;48.066;20.976;2023-05-28T05:15:54;1.30;;;0.67;;
76123;SDS011;65173;48.066;20.976;2023-05-28T05:18:58;3.28;;;0.82;;
76123;SDS011;65173;48.066;20.976;2023-05-28T05:22:01;1.70;;;0.70;;
76123;SDS011;65173;48.066;20.976;2023-05-28T05:25:07;3.10;;;0.73;;
76123;SDS011;65173;48.066;20.976;2023-05-28T05:28:10;2.78;;;0.98;;
76123;SDS011;65173;48.066;20.976;2023-05-28T05:31:14;0.88;;;0.55;;
76123;SDS011;65173;48.066;20.976;2023-05-28T05:34:17;2.03;;;0.90;;
76123;SDS011;65173;48.066;20.976;2023-05-28T05:37:42;4.00;;;0.98;;
76123;SDS011;65173;48.066;20.976;2023-05-28T05:41:05;1.40;;;0.80;;
76123;SDS011;65173;48.066;20.976;2023-05-28T05:44:21;1.63;;;0.88;;
76123;SDS011;65173;48.066;20.976;2023-05-28T05:47:23;1.47;;;0.87;;
76123;SDS011;65173;48.066;20.976;2023-05-28T05:50:28;2.00;;;1.00;;
76123;SDS011;65173;48.066;20.976;2023-05-28T05:53:31;1.30;;;1.02;;
76123;SDS011;65173;48.066;20.976;2023-05-28T05:56:35;1.23;;;0.80;;
76123;SDS011;65173;48.066;20.976;2023-05-28T05:59:37;3.00;;;0.90;;
76123;SDS011;65173;48.066;20.976;2023-05-28T06:02:41;1.75;;;0.82;;
76123;SDS011;65173;48.066;20.976;2023-05-28T06:06:08;2.17;;;1.00;;
76123;SDS011;65173;48.066;20.976;2023-05-28T06:09:29;0.75;;;0.65;;
76123;SDS011;65173;48.066;20.976;2023-05-28T06:12:39;3.25;;;1.35;;
76123;SDS011;65173;48.066;20.976;2023-05-28T06:15:43;3.72;;;1.25;;
76123;SDS011;65173;48.066;20.976;2023-05-28T06:18:48;3.57;;;1.17;;
76123;SDS011;65173;48.066;20.976;2023-05-28T06:21:51;1.77;;;1.10;;
76123;SDS011;65173;48.066;20.976;2023-05-28T06:24:54;1.95;;;1.33;;
76123;SDS011;65173;48.066;20.976;2023-05-28T06:27:58;5.20;;;1.40;;
76123;SDS011;65173;48.066;20.976;2023-05-28T06:31:02;3.88;;;0.80;;
76123;SDS011;65173;48.066;20.976;2023-05-28T06:34:06;1.38;;;0.85;;
76123;SDS011;65173;48.066;20.976;2023-05-28T06:37:09;4.93;;;0.93;;
76123;SDS011;65173;48.066;20.976;2023-05-28T06:40:12;0.95;;;0.85;;
76123;SDS011;65173;48.066;20.976;2023-05-28T06:43:14;2.75;;;1.05;;
76123;SDS011;65173;48.066;20.976;2023-05-28T06:46:32;1.05;;;0.95;;
76123;SDS011;65173;48.066;20.976;2023-05-28T06:49:35;0.80;;;0.60;;
76123;SDS011;65173;48.066;20.976;2023-05-28T06:52:38;1.38;;;1.05;;
76123;SDS011;65173;48.066;20.976;2023-05-28T06:55:42;3.30;;;1.15;;
76123;SDS011;65173;48.066;20.976;2023-05-28T06:59:14;2.27;;;1.13;;
76123;SDS011;65173;48.066;20.976;2023-05-28T07:02:40;0.88;;;0.80;;
76123;SDS011;65173;48.066;20.976;2023-05-28T07:06:09;1.60;;;0.82;;
76123;SDS011;65173;48.066;20.976;2023-05-28T07:09:12;2.50;;;1.40;;
76123;SDS011;65173;48.066;20.976;2023-05-28T07:12:15;2.67;;;1.30;;
76123;SDS011;65173;48.066;20.976;2023-05-28T07:15:23;3.92;;;0.90;;
76123;SDS011;65173;48.066;20.976;2023-05-28T07:18:25;1.48;;;1.10;;
76123;SDS011;65173;48.066;20.976;2023-05-28T07:21:29;2.27;;;0.93;;
76123;SDS011;65173;48.066;20.976;2023-05-28T07:24:32;2.90;;;1.00;;
76123;SDS011;65173;48.066;20.976;2023-05-28T07:27:34;1.52;;;0.82;;
76123;SDS011;65173;48.066;20.976;2023-05-28T07:30:38;2.73;;;1.30;;
76123;SDS011;65173;48.066;20.976;2023-05-28T07:33:42;1.15;;;1.05;;
76123;SDS011;65173;48.066;20.976;2023-05-28T07:36:45;1.98;;;1.40;;
76123;SDS011;65173;48.066;20.976;2023-05-28T07:39:49;2.80;;;1.48;;
76123;SDS011;65173;48.066;20.976;2023-05-28T07:42:51;2.63;;;1.63;;
76123;SDS011;65173;48.066;20.976;2023-05-28T07:45:54;1.45;;;1.10;;
76123;SDS011;65173;48.066;20.976;2023-05-28T07:49:03;1.73;;;1.42;;
76123;SDS011;65173;48.066;20.976;2023-05-28T07:52:22;2.70;;;1.43;;
76123;SDS011;65173;48.066;20.976;2023-05-28T07:55:25;1.80;;;1.30;;
76123;SDS011;65173;48.066;20.976;2023-05-28T07:58:28;5.03;;;1.30;;
76123;SDS011;65173;48.066;20.976;2023-05-28T08:01:32;3.33;;;1.63;;
76123;SDS011;65173;48.066;20.976;2023-05-28T08:04:39;2.55;;;1.50;;
76123;SDS011;65173;48.066;20.976;2023-05-28T08:07:43;2.03;;;1.60;;
76123;SDS011;65173;48.066;20.976;2023-05-28T08:10:47;1.42;;;1.30;;
76123;SDS011;65173;48.066;20.976;2023-05-28T08:13:50;2.13;;;1.55;;
76123;SDS011;65173;48.066;20.976;2023-05-28T08:16:52;1.75;;;1.33;;
76123;SDS011;65173;48.066;20.976;2023-05-28T08:20:24;4.40;;;1.40;;
76123;SDS011;65173;48.066;20.976;2023-05-28T08:23:38;1.47;;;1.10;;
76123;SDS011;65173;48.066;20.976;2023-05-28T08:26:44;2.55;;;1.63;;
76123;SDS011;65173;48.066;20.976;2023-05-28T08:29:47;2.92;;;1.42;;
76123;SDS011;65173;48.066;20.976;2023-05-28T08:32:51;3.27;;;1.87;;
76123;SDS011;65173;48.066;20.976;2023-05-28T08:36:11;2.35;;;1.70;;
76123;SDS011;65173;48.066;20.976;2023-05-28T08:39:52;2.78;;;1.33;;
76123;SDS011;65173;48.066;20.976;2023-05-28T08:43:19;2.92;;;1.48;;
76123;SDS011;65173;48.066;20.976;2023-05-28T08:46:23;2.17;;;1.50;;
76123;SDS011;65173;48.066;20.976;2023-05-28T08:49:53;1.67;;;1.58;;
76123;SDS011;65173;48.066;20.976;2023-05-28T08:53:03;2.42;;;1.70;;
76123;SDS011;65173;48.066;20.976;2023-05-28T08:56:09;2.13;;;1.93;;
76123;SDS011;65173;48.066;20.976;2023-05-28T08:59:13;1.92;;;1.80;;
76123;SDS011;65173;48.066;20.976;2023-05-28T09:02:21;2.90;;;2.17;;
76123;SDS011;65173;48.066;20.976;2023-05-28T09:05:26;2.93;;;2.03;;
76123;SDS011;65173;48.066;20.976;2023-05-28T09:08:29;5.20;;;2.00;;
76123;SDS011;65173;48.066;20.976;2023-05-28T09:11:32;3.10;;;2.10;;
76123;SDS011;65173;48.066;20.976;2023-05-28T09:14:37;4.05;;;2.08;;
76123;SDS011;65173;48.066;20.976;2023-05-28T09:17:44;4.60;;;2.20;;
76123;SDS011;65173;48.066;20.976;2023-05-28T09:20:59;2.22;;;1.85;;
76123;SDS011;65173;48.066;20.976;2023-05-28T09:24:04;3.35;;;2.10;;
76123;SDS011;65173;48.066;20.976;2023-05-28T09:27:27;5.17;;;4.67;;
76123;SDS011;65173;48.066;20.976;2023-05-28T09:30:33;5.28;;;4.88;;
76123;SDS011;65173;48.066;20.976;2023-05-28T09:33:41;3.85;;;3.58;;
76123;SDS011;65173;48.066;20.976;2023-05-28T09:36:51;4.85;;;2.67;;
76123;SDS011;65173;48.066;20.976;2023-05-28T09:40:00;3.05;;;1.95;;
76123;SDS011;65173;48.066;20.976;2023-05-28T09:43:06;3.55;;;2.30;;
76123;SDS011;65173;48.066;20.976;2023-05-28T09:46:09;2.53;;;1.98;;
76123;SDS011;65173;48.066;20.976;2023-05-28T09:49:12;3.30;;;2.00;;
76123;SDS011;65173;48.066;20.976;2023-05-28T09:52:18;3.40;;;1.98;;
76123;SDS011;65173;48.066;20.976;2023-05-28T09:55:24;3.13;;;2.40;;
76123;SDS011;65173;48.066;20.976;2023-05-28T09:58:30;2.20;;;2.00;;
76123;SDS011;65173;48.066;20.976;2023-05-28T10:01:38;2.60;;;2.40;;
76123;SDS011;65173;48.066;20.976;2023-05-28T10:04:53;2.53;;;2.35;;
76123;SDS011;65173;48.066;20.976;2023-05-28T10:07:59;3.53;;;2.33;;
76123;SDS011;65173;48.066;20.976;2023-05-28T10:11:08;4.35;;;2.58;;
76123;SDS011;65173;48.066;20.976;2023-05-28T10:14:15;5.35;;;2.28;;
76123;SDS011;65173;48.066;20.976;2023-05-28T10:17:18;2.78;;;2.33;;
76123;SDS011;65173;48.066;20.976;2023-05-28T10:20:22;3.78;;;2.58;;
76123;SDS011;65173;48.066;20.976;2023-05-28T10:23:26;4.17;;;2.47;;
76123;SDS011;65173;48.066;20.976;2023-05-28T10:26:29;4.32;;;2.42;;
76123;SDS011;65173;48.066;20.976;2023-05-28T10:29:39;6.45;;;2.58;;
76123;SDS011;65173;48.066;20.976;2023-05-28T10:32:43;3.05;;;2.60;;
76123;SDS011;65173;48.066;20.976;2023-05-28T10:38:57;3.80;;;2.97;;
76123;SDS011;65173;48.066;20.976;2023-05-28T10:42:03;2.95;;;2.60;;
76123;SDS011;65173;48.066;20.976;2023-05-28T10:45:11;5.47;;;2.93;;
76123;SDS011;65173;48.066;20.976;2023-05-28T10:48:14;3.50;;;2.72;;
76123;SDS011;65173;48.066;20.976;2023-05-28T10:51:19;5.82;;;3.03;;
76123;SDS011;65173;48.066;20.976;2023-05-28T10:57:47;5.78;;;2.80;;
76123;SDS011;65173;48.066;20.976;2023-05-28T11:00:50;3.47;;;3.03;;
76123;SDS011;65173;48.066;20.976;2023-05-28T11:03:54;3.75;;;2.90;;
76123;SDS011;65173;48.066;20.976;2023-05-28T11:06:57;3.40;;;3.00;;
76123;SDS011;65173;48.066;20.976;2023-05-28T11:10:00;4.25;;;2.90;;
76123;SDS011;65173;48.066;20.976;2023-05-28T11:13:03;5.63;;;3.70;;
76123;SDS011;65173;48.066;20.976;2023-05-28T11:16:07;4.47;;;3.25;;
76123;SDS011;65173;48.066;20.976;2023-05-28T11:19:13;5.47;;;2.83;;
76123;SDS011;65173;48.066;20.976;2023-05-28T11:22:16;4.53;;;3.10;;
76123;SDS011;65173;48.066;20.976;2023-05-28T11:25:22;3.63;;;3.03;;
76123;SDS011;65173;48.066;20.976;2023-05-28T11:28:27;3.40;;;2.90;;
76123;SDS011;65173;48.066;20.976;2023-05-28T11:31:36;2.75;;;2.25;;
76123;SDS011;65173;48.066;20.976;2023-05-28T11:34:40;2.92;;;2.63;;
76123;SDS011;65173;48.066;20.976;2023-05-28T11:37:43;5.22;;;3.15;;
76123;SDS011;65173;48.066;20.976;2023-05-28T11:40:47;4.20;;;2.92;;
76123;SDS011;65173;48.066;20.976;2023-05-28T11:43:49;3.17;;;2.63;;
76123;SDS011;65173;48.066;20.976;2023-05-28T11:46:53;5.05;;;3.90;;
76123;SDS011;65173;48.066;20.976;2023-05-28T11:49:56;3.43;;;3.17;;
76123;SDS011;65173;48.066;20.976;2023-05-28T11:52:59;3.22;;;2.92;;
76123;SDS011;65173;48.066;20.976;2023-05-28T11:56:01;3.72;;;3.25;;
76123;SDS011;65173;48.066;20.976;2023-05-28T11:59:04;3.47;;;2.80;;
76123;SDS011;65173;48.066;20.976;2023-05-28T12:02:11;3.45;;;2.95;;
76123;SDS011;65173;48.066;20.976;2023-05-28T12:05:16;5.90;;;3.10;;
76123;SDS011;65173;48.066;20.976;2023-05-28T12:08:19;3.05;;;2.75;;
76123;SDS011;65173;48.066;20.976;2023-05-28T12:11:25;3.30;;;3.00;;
76123;SDS011;65173;48.066;20.976;2023-05-28T12:14:29;4.03;;;2.85;;
76123;SDS011;65173;48.066;20.976;2023-05-28T12:17:36;3.85;;;3.08;;
76123;SDS011;65173;48.066;20.976;2023-05-28T12:20:40;3.97;;;3.13;;
76123;SDS011;65173;48.066;20.976;2023-05-28T12:23:43;5.77;;;3.27;;
76123;SDS011;65173;48.066;20.976;2023-05-28T12:26:46;3.50;;;2.70;;
76123;SDS011;65173;48.066;20.976;2023-05-28T12:29:49;2.85;;;2.30;;
76123;SDS011;65173;48.066;20.976;2023-05-28T12:32:52;4.40;;;2.75;;
76123;SDS011;65173;48.066;20.976;2023-05-28T12:35:55;3.67;;;2.95;;
76123;SDS011;65173;48.066;20.976;2023-05-28T12:38:58;3.47;;;2.25;;
76123;SDS011;65173;48.066;20.976;2023-05-28T12:42:01;3.05;;;2.63;;
76123;SDS011;65173;48.066;20.976;2023-05-28T12:45:05;4.03;;;2.43;;
76123;SDS011;65173;48.066;20.976;2023-05-28T12:48:08;2.85;;;2.63;;
76123;SDS011;65173;48.066;20.976;2023-05-28T12:51:11;3.03;;;2.30;;
76123;SDS011;65173;48.066;20.976;2023-05-28T12:54:14;2.53;;;2.30;;
76123;SDS011;65173;48.066;20.976;2023-05-28T12:57:17;5.80;;;3.43;;
76123;SDS011;65173;48.066;20.976;2023-05-28T13:00:20;5.50;;;3.15;;
76123;SDS011;65173;48.066;20.976;2023-05-28T13:03:23;3.65;;;2.25;;
76123;SDS011;65173;48.066;20.976;2023-05-28T13:06:26;3.25;;;2.80;;
76123;SDS011;65173;48.066;20.976;2023-05-28T13:09:29;4.43;;;3.25;;
76123;SDS011;65173;48.066;20.976;2023-05-28T13:12:33;3.65;;;3.15;;
76123;SDS011;65173;48.066;20.976;2023-05-28T13:15:38;3.15;;;2.85;;
76123;SDS011;65173;48.066;20.976;2023-05-28T13:18:43;2.63;;;2.43;;
76123;SDS011;65173;48.066;20.976;2023-05-28T13:21:46;3.90;;;2.70;;
76123;SDS011;65173;48.066;20.976;2023-05-28T13:24:49;3.80;;;3.03;;
76123;SDS011;65173;48.066;20.976;2023-05-28T13:27:52;2.83;;;2.33;;
76123;SDS011;65173;48.066;20.976;2023-05-28T13:30:55;4.43;;;2.35;;
76123;SDS011;65173;48.066;20.976;2023-05-28T13:33:58;4.43;;;2.65;;
76123;SDS011;65173;48.066;20.976;2023-05-28T13:37:02;3.03;;;2.47;;
76123;SDS011;65173;48.066;20.976;2023-05-28T13:40:05;3.90;;;2.03;;
76123;SDS011;65173;48.066;20.976;2023-05-28T13:43:12;4.38;;;2.60;;
76123;SDS011;65173;48.066;20.976;2023-05-28T13:46:16;3.55;;;2.30;;
76123;SDS011;65173;48.066;20.976;2023-05-28T13:49:20;4.47;;;2.33;;
76123;SDS011;65173;48.066;20.976;2023-05-28T13:52:23;2.67;;;2.40;;
76123;SDS011;65173;48.066;20.976;2023-05-28T13:55:26;4.78;;;3.05;;
76123;SDS011;65173;48.066;20.976;2023-05-28T13:58:28;3.37;;;2.70;;
76123;SDS011;65173;48.066;20.976;2023-05-28T14:01:31;4.05;;;2.83;;
76123;SDS011;65173;48.066;20.976;2023-05-28T14:04:34;4.18;;;2.50;;
76123;SDS011;65173;48.066;20.976;2023-05-28T14:07:37;2.92;;;2.65;;
76123;SDS011;65173;48.066;20.976;2023-05-28T14:10:40;2.95;;;2.40;;
76123;SDS011;65173;48.066;20.976;2023-05-28T14:13:43;4.63;;;3.10;;
76123;SDS011;65173;48.066;20.976;2023-05-28T14:16:46;4.13;;;2.50;;
76123;SDS011;65173;48.066;20.976;2023-05-28T14:19:48;2.87;;;2.43;;
76123;SDS011;65173;48.066;20.976;2023-05-28T14:22:51;3.20;;;2.50;;
76123;SDS011;65173;48.066;20.976;2023-05-28T14:25:54;5.70;;;3.10;;
76123;SDS011;65173;48.066;20.976;2023-05-28T14:28:57;3.17;;;2.80;;
76123;SDS011;65173;48.066;20.976;2023-05-28T14:32:00;3.25;;;2.95;;
76123;SDS011;65173;48.066;20.976;2023-05-28T14:35:06;2.60;;;2.40;;
76123;SDS011;65173;48.066;20.976;2023-05-28T14:38:09;3.28;;;2.50;;
76123;SDS011;65173;48.066;20.976;2023-05-28T14:41:12;4.50;;;2.33;;
76123;SDS011;65173;48.066;20.976;2023-05-28T14:44:14;4.70;;;2.58;;
76123;SDS011;65173;48.066;20.976;2023-05-28T14:47:17;5.38;;;3.42;;
76123;SDS011;65173;48.066;20.976;2023-05-28T14:50:20;5.97;;;3.60;;
76123;SDS011;65173;48.066;20.976;2023-05-28T14:53:23;4.40;;;3.17;;
76123;SDS011;65173;48.066;20.976;2023-05-28T14:56:26;2.72;;;2.33;;
76123;SDS011;65173;48.066;20.976;2023-05-28T14:59:29;3.50;;;2.43;;
76123;SDS011;65173;48.066;20.976;2023-05-28T15:02:32;3.58;;;2.72;;
76123;SDS011;65173;48.066;20.976;2023-05-28T15:05:38;4.53;;;3.40;;
76123;SDS011;65173;48.066;20.976;2023-05-28T15:08:40;4.03;;;2.47;;
76123;SDS011;65173;48.066;20.976;2023-05-28T15:11:43;5.30;;;2.88;;
76123;SDS011;65173;48.066;20.976;2023-05-28T15:14:46;4.38;;;2.78;;
76123;SDS011;65173;48.066;20.976;2023-05-28T15:17:48;3.35;;;2.60;;
76123;SDS011;65173;48.066;20.976;2023-05-28T15:20:51;3.60;;;2.90;;
76123;SDS011;65173;48.066;20.976;2023-05-28T15:23:55;4.03;;;3.10;;
76123;SDS011;65173;48.066;20.976;2023-05-28T15:26:58;4.97;;;3.05;;
76123;SDS011;65173;48.066;20.976;2023-05-28T15:30:01;3.53;;;2.73;;
76123;SDS011;65173;48.066;20.976;2023-05-28T15:33:04;4.95;;;2.90;;
76123;SDS011;65173;48.066;20.976;2023-05-28T15:36:08;4.18;;;3.00;;
76123;SDS011;65173;48.066;20.976;2023-05-28T15:39:11;4.78;;;2.92;;
76123;SDS011;65173;48.066;20.976;2023-05-28T15:42:14;4.60;;;3.05;;
76123;SDS011;65173;48.066;20.976;2023-05-28T15:45:19;3.67;;;2.80;;
76123;SDS011;65173;48.066;20.976;2023-05-28T15:48:22;5.28;;;2.70;;
76123;SDS011;65173;48.066;20.976;2023-05-28T15:51:25;5.87;;;3.50;;
76123;SDS011;65173;48.066;20.976;2023-05-28T15:54:27;3.67;;;3.00;;
76123;SDS011;65173;48.066;20.976;2023-05-28T15:57:30;2.88;;;2.47;;
76123;SDS011;65173;48.066;20.976;2023-05-28T16:00:33;5.73;;;2.80;;
76123;SDS011;65173;48.066;20.976;2023-05-28T16:03:36;4.95;;;3.03;;
76123;SDS011;65173;48.066;20.976;2023-05-28T16:06:39;5.82;;;2.83;;
76123;SDS011;65173;48.066;20.976;2023-05-28T16:09:42;4.88;;;3.00;;
76123;SDS011;65173;48.066;20.976;2023-05-28T16:12:45;4.78;;;2.78;;
76123;SDS011;65173;48.066;20.976;2023-05-28T16:15:48;7.10;;;3.28;;
76123;SDS011;65173;48.066;20.976;2023-05-28T16:18:55;4.65;;;2.67;;
76123;SDS011;65173;48.066;20.976;2023-05-28T16:21:59;3.63;;;2.93;;
76123;SDS011;65173;48.066;20.976;2023-05-28T16:25:02;4.47;;;3.45;;
76123;SDS011;65173;48.066;20.976;2023-05-28T16:28:05;4.15;;;2.83;;
76123;SDS011;65173;48.066;20.976;2023-05-28T16:31:08;2.87;;;2.43;;
76123;SDS011;65173;48.066;20.976;2023-05-28T16:34:13;4.28;;;3.05;;
76123;SDS011;65173;48.066;20.976;2023-05-28T16:37:17;4.07;;;2.88;;
76123;SDS011;65173;48.066;20.976;2023-05-28T16:40:20;4.15;;;2.80;;
76123;SDS011;65173;48.066;20.976;2023-05-28T16:43:22;3.10;;;2.50;;
76123;SDS011;65173;48.066;20.976;2023-05-28T16:46:28;3.35;;;2.67;;
76123;SDS011;65173;48.066;20.976;2023-05-28T16:49:31;3.05;;;2.20;;
76123;SDS011;65173;48.066;20.976;2023-05-28T16:52:34;3.77;;;2.80;;
76123;SDS011;65173;48.066;20.976;2023-05-28T16:55:37;5.10;;;3.00;;
76123;SDS011;65173;48.066;20.976;2023-05-28T16:58:40;5.18;;;2.47;;
76123;SDS011;65173;48.066;20.976;2023-05-28T17:01:43;3.93;;;2.70;;
76123;SDS011;65173;48.066;20.976;2023-05-28T17:04:49;5.03;;;3.10;;
76123;SDS011;65173;48.066;20.976;2023-05-28T17:07:52;5.70;;;2.78;;
76123;SDS011;65173;48.066;20.976;2023-05-28T17:10:55;3.28;;;2.60;;
76123;SDS011;65173;48.066;20.976;2023-05-28T17:13:57;5.45;;;2.67;;
76123;SDS011;65173;48.066;20.976;2023-05-28T17:17:01;5.45;;;2.80;;
76123;SDS011;65173;48.066;20.976;2023-05-28T17:20:03;5.07;;;2.88;;
76123;SDS011;65173;48.066;20.976;2023-05-28T17:23:10;5.97;;;2.90;;
76123;SDS011;65173;48.066;20.976;2023-05-28T17:26:13;5.18;;;3.30;;
76123;SDS011;65173;48.066;20.976;2023-05-28T17:29:16;3.13;;;2.38;;
76123;SDS011;65173;48.066;20.976;2023-05-28T17:32:19;6.03;;;2.80;;
76123;SDS011;65173;48.066;20.976;2023-05-28T17:35:22;3.25;;;2.75;;
76123;SDS011;65173;48.066;20.976;2023-05-28T17:38:25;6.10;;;3.28;;
76123;SDS011;65173;48.066;20.976;2023-05-28T17:41:28;5.07;;;3.13;;
76123;SDS011;65173;48.066;20.976;2023-05-28T17:44:32;4.43;;;2.85;;
76123;SDS011;65173;48.066;20.976;2023-05-28T17:47:35;5.03;;;3.10;;
76123;SDS011;65173;48.066;20.976;2023-05-28T17:50:37;3.65;;;2.42;;
76123;SDS011;65173;48.066;20.976;2023-05-28T17:53:40;5.10;;;3.00;;
76123;SDS011;65173;48.066;20.976;2023-05-28T17:56:49;4.22;;;3.10;;
76123;SDS011;65173;48.066;20.976;2023-05-28T17:59:52;4.78;;;2.90;;
76123;SDS011;65173;48.066;20.976;2023-05-28T18:02:54;5.87;;;2.80;;
76123;SDS011;65173;48.066;20.976;2023-05-28T18:06:00;4.55;;;2.88;;
76123;SDS011;65173;48.066;20.976;2023-05-28T18:09:03;4.43;;;3.20;;
76123;SDS011;65173;48.066;20.976;2023-05-28T18:12:09;8.40;;;2.70;;
76123;SDS011;65173;48.066;20.976;2023-05-28T18:15:12;3.45;;;2.53;;
76123;SDS011;65173;48.066;20.976;2023-05-28T18:18:15;3.08;;;2.63;;
76123;SDS011;65173;48.066;20.976;2023-05-28T18:21:17;6.80;;;3.00;;
76123;SDS011;65173;48.066;20.976;2023-05-28T18:24:21;5.63;;;3.00;;